sensor_id;sensor_type;location;lat;lon;timestamp;P1;durP1;ratioP1;P2;durP2;ratioP2
50821;SDS011;36794;51.212;6.980;2023-07-29T00:01:40;10.52;;;3.13;;
50821;SDS011;36794;51.212;6.980;2023-07-29T00:04:07;10.07;;;3.38;;
50821;SDS011;36794;51.212;6.980;2023-07-29T00:06:34;7.43;;;2.60;;
50821;SDS011;36794;51.212;6.980;2023-07-29T00:09:00;4.25;;;2.85;;
50821;SDS011;36794;51.212;6.980;2023-07-29T00:11:26;6.20;;;2.70;;
50821;SDS011;36794;51.212;6.980;2023-07-29T00:13:52;4.32;;;2.60;;
50821;SDS011;36794;51.212;6.980;2023-07-29T00:16:18;3.53;;;2.30;;
50821;SDS011;36794;51.212;6.980;2023-07-29T00:18:47;15.45;;;2.90;;
50821;SDS011;36794;51.212;6.980;2023-07-29T00:21:13;5.72;;;2.45;;
50821;SDS011;36794;51.212;6.980;2023-07-29T00:23:38;7.78;;;2.63;;
50821;SDS011;36794;51.212;6.980;2023-07-29T00:26:04;9.25;;;2.40;;
50821;SDS011;36794;51.212;6.980;2023-07-29T00:28:31;4.38;;;2.53;;
50821;SDS011;36794;51.212;6.980;2023-07-29T00:30:57;6.95;;;2.40;;
50821;SDS011;36794;51.212;6.980;2023-07-29T00:33:23;8.18;;;2.50;;
50821;SDS011;36794;51.212;6.980;2023-07-29T00:35:49;7.50;;;2.53;;
50821;SDS011;36794;51.212;6.980;2023-07-29T00:38:15;5.47;;;2.30;;
50821;SDS011;36794;51.212;6.980;2023-07-29T00:40:41;11.25;;;2.55;;
50821;SDS011;36794;51.212;6.980;2023-07-29T00:43:06;5.70;;;2.33;;
50821;SDS011;36794;51.212;6.980;2023-07-29T00:45:32;6.15;;;2.78;;
50821;SDS011;36794;51.212;6.980;2023-07-29T00:47:59;4.80;;;2.53;;
50821;SDS011;36794;51.212;6.980;2023-07-29T00:50:25;3.90;;;2.58;;
50821;SDS011;36794;51.212;6.980;2023-07-29T00:52:52;5.53;;;2.60;;
50821;SDS011;36794;51.212;6.980;2023-07-29T00:55:19;6.50;;;2.50;;
50821;SDS011;36794;51.212;6.980;2023-07-29T00:57:44;4.45;;;2.30;;
50821;SDS011;36794;51.212;6.980;2023-07-29T01:00:13;6.10;;;2.80;;
50821;SDS011;36794;51.212;6.980;2023-07-29T01:02:40;2.97;;;2.20;;
50821;SDS011;36794;51.212;6.980;2023-07-29T01:05:06;7.40;;;2.70;;
50821;SDS011;36794;51.212;6.980;2023-07-29T01:15:46;7.68;;;2.35;;
50821;SDS011;36794;51.212;6.980;2023-07-29T01:18:17;5.75;;;2.75;;
50821;SDS011;36794;51.212;6.980;2023-07-29T01:20:44;4.25;;;2.35;;
50821;SDS011;36794;51.212;6.980;2023-07-29T01:23:12;5.60;;;2.30;;
50821;SDS011;36794;51.212;6.980;2023-07-29T01:25:38;6.88;;;2.60;;
50821;SDS011;36794;51.212;6.980;2023-07-29T01:28:04;5.15;;;2.50;;
50821;SDS011;36794;51.212;6.980;2023-07-29T01:30:33;6.78;;;2.97;;
50821;SDS011;36794;51.212;6.980;2023-07-29T01:37:57;5.68;;;2.33;;
50821;SDS011;36794;51.212;6.980;2023-07-29T01:40:26;3.75;;;2.58;;
50821;SDS011;36794;51.212;6.980;2023-07-29T01:42:53;5.25;;;2.50;;
50821;SDS011;36794;51.212;6.980;2023-07-29T01:45:21;5.15;;;2.58;;
50821;SDS011;36794;51.212;6.980;2023-07-29T01:47:48;3.97;;;2.63;;
50821;SDS011;36794;51.212;6.980;2023-07-29T01:50:14;6.32;;;3.13;;
50821;SDS011;36794;51.212;6.980;2023-07-29T01:52:40;4.85;;;2.53;;
50821;SDS011;36794;51.212;6.980;2023-07-29T01:55:06;4.97;;;2.70;;
50821;SDS011;36794;51.212;6.980;2023-07-29T01:57:32;6.55;;;2.65;;
50821;SDS011;36794;51.212;6.980;2023-07-29T01:59:58;7.03;;;2.55;;
50821;SDS011;36794;51.212;6.980;2023-07-29T02:02:24;4.18;;;3.15;;
50821;SDS011;36794;51.212;6.980;2023-07-29T02:04:50;11.70;;;2.97;;
50821;SDS011;36794;51.212;6.980;2023-07-29T02:07:16;8.85;;;3.08;;
50821;SDS011;36794;51.212;6.980;2023-07-29T02:09:43;6.93;;;3.25;;
50821;SDS011;36794;51.212;6.980;2023-07-29T02:12:09;3.72;;;2.85;;
50821;SDS011;36794;51.212;6.980;2023-07-29T02:14:35;6.50;;;3.00;;
50821;SDS011;36794;51.212;6.980;2023-07-29T02:17:01;8.18;;;2.95;;
50821;SDS011;36794;51.212;6.980;2023-07-29T02:19:27;4.63;;;3.10;;
50821;SDS011;36794;51.212;6.980;2023-07-29T02:21:53;6.63;;;3.00;;
50821;SDS011;36794;51.212;6.980;2023-07-29T02:24:19;7.32;;;3.28;;
50821;SDS011;36794;51.212;6.980;2023-07-29T02:26:45;7.90;;;4.47;;
50821;SDS011;36794;51.212;6.980;2023-07-29T02:29:11;6.03;;;3.70;;
50821;SDS011;36794;51.212;6.980;2023-07-29T02:31:37;5.95;;;4.05;;
50821;SDS011;36794;51.212;6.980;2023-07-29T02:34:03;6.57;;;4.10;;
50821;SDS011;36794;51.212;6.980;2023-07-29T02:36:29;6.28;;;4.25;;
50821;SDS011;36794;51.212;6.980;2023-07-29T02:38:55;10.50;;;4.47;;
50821;SDS011;36794;51.212;6.980;2023-07-29T02:41:21;6.18;;;4.00;;
50821;SDS011;36794;51.212;6.980;2023-07-29T02:43:48;8.43;;;4.55;;
50821;SDS011;36794;51.212;6.980;2023-07-29T02:46:14;6.30;;;4.70;;
50821;SDS011;36794;51.212;6.980;2023-07-29T02:48:41;5.30;;;4.53;;
50821;SDS011;36794;51.212;6.980;2023-07-29T02:51:07;8.35;;;4.80;;
50821;SDS011;36794;51.212;6.980;2023-07-29T02:53:33;8.27;;;4.78;;
50821;SDS011;36794;51.212;6.980;2023-07-29T02:56:01;6.28;;;4.63;;
50821;SDS011;36794;51.212;6.980;2023-07-29T02:58:27;7.95;;;4.65;;
50821;SDS011;36794;51.212;6.980;2023-07-29T03:00:59;5.63;;;4.90;;
50821;SDS011;36794;51.212;6.980;2023-07-29T03:03:27;5.28;;;4.70;;
50821;SDS011;36794;51.212;6.980;2023-07-29T03:05:59;6.95;;;5.20;;
50821;SDS011;36794;51.212;6.980;2023-07-29T03:08:26;10.17;;;4.67;;
50821;SDS011;36794;51.212;6.980;2023-07-29T03:10:52;12.18;;;5.82;;
50821;SDS011;36794;51.212;6.980;2023-07-29T03:13:18;8.60;;;4.63;;
50821;SDS011;36794;51.212;6.980;2023-07-29T03:15:44;5.88;;;5.20;;
50821;SDS011;36794;51.212;6.980;2023-07-29T03:18:10;13.57;;;4.93;;
50821;SDS011;36794;51.212;6.980;2023-07-29T03:20:36;8.93;;;5.28;;
50821;SDS011;36794;51.212;6.980;2023-07-29T03:23:02;5.90;;;5.00;;
50821;SDS011;36794;51.212;6.980;2023-07-29T03:25:28;9.07;;;5.05;;
50821;SDS011;36794;51.212;6.980;2023-07-29T03:27:54;7.55;;;5.28;;
50821;SDS011;36794;51.212;6.980;2023-07-29T03:30:21;10.13;;;5.80;;
50821;SDS011;36794;51.212;6.980;2023-07-29T03:32:47;6.18;;;5.35;;
50821;SDS011;36794;51.212;6.980;2023-07-29T03:35:13;10.02;;;6.28;;
50821;SDS011;36794;51.212;6.980;2023-07-29T03:37:39;10.57;;;6.45;;
50821;SDS011;36794;51.212;6.980;2023-07-29T03:40:06;10.45;;;6.25;;
50821;SDS011;36794;51.212;6.980;2023-07-29T03:42:32;12.70;;;6.97;;
50821;SDS011;36794;51.212;6.980;2023-07-29T03:44:58;8.20;;;6.32;;
50821;SDS011;36794;51.212;6.980;2023-07-29T03:47:24;9.77;;;7.13;;
50821;SDS011;36794;51.212;6.980;2023-07-29T03:49:50;9.02;;;6.80;;
50821;SDS011;36794;51.212;6.980;2023-07-29T03:52:16;10.63;;;7.63;;
50821;SDS011;36794;51.212;6.980;2023-07-29T03:54:42;10.07;;;6.18;;
50821;SDS011;36794;51.212;6.980;2023-07-29T03:57:08;13.75;;;7.07;;
50821;SDS011;36794;51.212;6.980;2023-07-29T03:59:34;8.30;;;6.40;;
50821;SDS011;36794;51.212;6.980;2023-07-29T04:02:00;9.43;;;7.10;;
50821;SDS011;36794;51.212;6.980;2023-07-29T04:04:26;9.48;;;6.43;;
50821;SDS011;36794;51.212;6.980;2023-07-29T04:06:52;6.95;;;5.97;;
50821;SDS011;36794;51.212;6.980;2023-07-29T04:09:18;8.93;;;6.03;;
50821;SDS011;36794;51.212;6.980;2023-07-29T04:11:44;7.20;;;6.50;;
50821;SDS011;36794;51.212;6.980;2023-07-29T04:14:10;9.38;;;7.00;;
50821;SDS011;36794;51.212;6.980;2023-07-29T04:16:36;10.70;;;6.95;;
50821;SDS011;36794;51.212;6.980;2023-07-29T04:19:02;13.35;;;7.30;;
50821;SDS011;36794;51.212;6.980;2023-07-29T04:21:28;18.48;;;8.90;;
50821;SDS011;36794;51.212;6.980;2023-07-29T04:23:54;14.98;;;7.85;;
50821;SDS011;36794;51.212;6.980;2023-07-29T04:26:20;13.32;;;7.93;;
50821;SDS011;36794;51.212;6.980;2023-07-29T04:28:45;11.82;;;7.63;;
50821;SDS011;36794;51.212;6.980;2023-07-29T04:31:11;13.27;;;8.02;;
50821;SDS011;36794;51.212;6.980;2023-07-29T04:33:37;10.57;;;7.35;;
50821;SDS011;36794;51.212;6.980;2023-07-29T04:36:04;10.82;;;7.57;;
50821;SDS011;36794;51.212;6.980;2023-07-29T04:38:30;13.52;;;8.02;;
50821;SDS011;36794;51.212;6.980;2023-07-29T04:41:00;9.95;;;7.30;;
50821;SDS011;36794;51.212;6.980;2023-07-29T04:43:27;11.95;;;7.30;;
50821;SDS011;36794;51.212;6.980;2023-07-29T04:45:53;11.05;;;7.03;;
50821;SDS011;36794;51.212;6.980;2023-07-29T04:48:19;13.30;;;7.03;;
50821;SDS011;36794;51.212;6.980;2023-07-29T04:50:45;14.90;;;8.00;;
50821;SDS011;36794;51.212;6.980;2023-07-29T04:53:11;9.27;;;6.95;;
50821;SDS011;36794;51.212;6.980;2023-07-29T04:55:37;12.73;;;6.03;;
50821;SDS011;36794;51.212;6.980;2023-07-29T04:58:03;10.90;;;5.90;;
50821;SDS011;36794;51.212;6.980;2023-07-29T05:00:29;11.60;;;5.75;;
50821;SDS011;36794;51.212;6.980;2023-07-29T05:02:55;10.90;;;6.10;;
50821;SDS011;36794;51.212;6.980;2023-07-29T05:05:21;12.25;;;5.78;;
50821;SDS011;36794;51.212;6.980;2023-07-29T05:07:47;11.32;;;6.07;;
50821;SDS011;36794;51.212;6.980;2023-07-29T05:10:13;7.93;;;4.60;;
50821;SDS011;36794;51.212;6.980;2023-07-29T05:12:39;11.57;;;5.63;;
50821;SDS011;36794;51.212;6.980;2023-07-29T05:15:05;10.15;;;5.13;;
50821;SDS011;36794;51.212;6.980;2023-07-29T05:17:32;9.60;;;5.72;;
50821;SDS011;36794;51.212;6.980;2023-07-29T05:19:58;11.35;;;5.43;;
50821;SDS011;36794;51.212;6.980;2023-07-29T05:22:24;9.80;;;5.43;;
50821;SDS011;36794;51.212;6.980;2023-07-29T05:24:50;7.40;;;5.75;;
50821;SDS011;36794;51.212;6.980;2023-07-29T05:27:16;8.48;;;5.38;;
50821;SDS011;36794;51.212;6.980;2023-07-29T05:29:42;7.25;;;5.53;;
50821;SDS011;36794;51.212;6.980;2023-07-29T05:32:08;7.43;;;5.50;;
50821;SDS011;36794;51.212;6.980;2023-07-29T05:34:34;9.55;;;5.40;;
50821;SDS011;36794;51.212;6.980;2023-07-29T05:36:59;7.75;;;4.88;;
50821;SDS011;36794;51.212;6.980;2023-07-29T05:39:25;12.15;;;5.38;;
50821;SDS011;36794;51.212;6.980;2023-07-29T05:41:51;7.47;;;5.35;;
50821;SDS011;36794;51.212;6.980;2023-07-29T05:44:17;7.25;;;4.35;;
50821;SDS011;36794;51.212;6.980;2023-07-29T05:46:43;11.02;;;5.93;;
50821;SDS011;36794;51.212;6.980;2023-07-29T05:49:09;6.38;;;5.07;;
50821;SDS011;36794;51.212;6.980;2023-07-29T05:51:35;11.77;;;5.55;;
50821;SDS011;36794;51.212;6.980;2023-07-29T05:54:01;8.77;;;5.03;;
50821;SDS011;36794;51.212;6.980;2023-07-29T05:56:27;9.63;;;5.45;;
50821;SDS011;36794;51.212;6.980;2023-07-29T05:58:53;6.63;;;5.68;;
50821;SDS011;36794;51.212;6.980;2023-07-29T06:01:19;9.05;;;5.10;;
50821;SDS011;36794;51.212;6.980;2023-07-29T06:03:46;6.97;;;5.18;;
50821;SDS011;36794;51.212;6.980;2023-07-29T06:06:12;10.32;;;4.25;;
50821;SDS011;36794;51.212;6.980;2023-07-29T06:08:38;8.45;;;5.18;;
50821;SDS011;36794;51.212;6.980;2023-07-29T06:11:04;5.65;;;4.75;;
50821;SDS011;36794;51.212;6.980;2023-07-29T06:13:33;6.65;;;5.10;;
50821;SDS011;36794;51.212;6.980;2023-07-29T06:15:59;9.05;;;4.47;;
50821;SDS011;36794;51.212;6.980;2023-07-29T06:18:25;5.68;;;4.32;;
50821;SDS011;36794;51.212;6.980;2023-07-29T06:20:51;9.05;;;4.03;;
50821;SDS011;36794;51.212;6.980;2023-07-29T06:23:17;6.00;;;3.95;;
50821;SDS011;36794;51.212;6.980;2023-07-29T06:25:43;5.47;;;3.35;;
50821;SDS011;36794;51.212;6.980;2023-07-29T06:28:09;6.03;;;3.35;;
50821;SDS011;36794;51.212;6.980;2023-07-29T06:30:35;5.85;;;3.45;;
50821;SDS011;36794;51.212;6.980;2023-07-29T06:33:01;7.18;;;3.78;;
50821;SDS011;36794;51.212;6.980;2023-07-29T06:35:28;7.10;;;3.50;;
50821;SDS011;36794;51.212;6.980;2023-07-29T06:37:54;5.68;;;3.45;;
50821;SDS011;36794;51.212;6.980;2023-07-29T06:40:20;8.90;;;3.60;;
50821;SDS011;36794;51.212;6.980;2023-07-29T06:42:46;5.72;;;3.42;;
50821;SDS011;36794;51.212;6.980;2023-07-29T06:45:12;5.05;;;3.22;;
50821;SDS011;36794;51.212;6.980;2023-07-29T06:47:38;6.32;;;2.55;;
50821;SDS011;36794;51.212;6.980;2023-07-29T06:50:04;5.07;;;2.30;;
50821;SDS011;36794;51.212;6.980;2023-07-29T06:52:30;3.17;;;2.05;;
50821;SDS011;36794;51.212;6.980;2023-07-29T07:01:14;2.83;;;1.50;;
50821;SDS011;36794;51.212;6.980;2023-07-29T07:07:20;4.43;;;1.75;;
50821;SDS011;36794;51.212;6.980;2023-07-29T07:09:55;6.53;;;2.75;;
50821;SDS011;36794;51.212;6.980;2023-07-29T07:12:21;4.43;;;1.70;;
50821;SDS011;36794;51.212;6.980;2023-07-29T07:14:47;5.10;;;1.65;;
50821;SDS011;36794;51.212;6.980;2023-07-29T07:17:13;2.78;;;1.48;;
50821;SDS011;36794;51.212;6.980;2023-07-29T07:19:39;8.73;;;1.80;;
50821;SDS011;36794;51.212;6.980;2023-07-29T07:22:05;4.72;;;1.80;;
50821;SDS011;36794;51.212;6.980;2023-07-29T07:24:31;3.17;;;1.70;;
50821;SDS011;36794;51.212;6.980;2023-07-29T07:26:57;4.35;;;1.55;;
50821;SDS011;36794;51.212;6.980;2023-07-29T07:29:23;3.00;;;1.80;;
50821;SDS011;36794;51.212;6.980;2023-07-29T07:31:50;2.70;;;1.63;;
50821;SDS011;36794;51.212;6.980;2023-07-29T07:34:17;3.95;;;1.67;;
50821;SDS011;36794;51.212;6.980;2023-07-29T07:36:43;3.83;;;1.60;;
50821;SDS011;36794;51.212;6.980;2023-07-29T07:39:09;6.03;;;1.83;;
50821;SDS011;36794;51.212;6.980;2023-07-29T07:41:35;2.83;;;1.85;;
50821;SDS011;36794;51.212;6.980;2023-07-29T07:44:01;2.33;;;1.60;;
50821;SDS011;36794;51.212;6.980;2023-07-29T07:46:28;4.05;;;1.80;;
50821;SDS011;36794;51.212;6.980;2023-07-29T07:48:54;4.45;;;1.70;;
50821;SDS011;36794;51.212;6.980;2023-07-29T07:51:19;2.65;;;1.58;;
50821;SDS011;36794;51.212;6.980;2023-07-29T07:53:45;3.05;;;1.40;;
50821;SDS011;36794;51.212;6.980;2023-07-29T07:56:11;2.17;;;1.20;;
50821;SDS011;36794;51.212;6.980;2023-07-29T07:58:37;1.73;;;1.00;;
50821;SDS011;36794;51.212;6.980;2023-07-29T08:01:04;2.88;;;1.10;;
50821;SDS011;36794;51.212;6.980;2023-07-29T08:03:31;2.30;;;1.17;;
50821;SDS011;36794;51.212;6.980;2023-07-29T08:05:57;1.70;;;1.02;;
50821;SDS011;36794;51.212;6.980;2023-07-29T08:08:23;2.65;;;1.13;;
50821;SDS011;36794;51.212;6.980;2023-07-29T08:10:49;3.97;;;1.70;;
50821;SDS011;36794;51.212;6.980;2023-07-29T08:13:15;5.80;;;1.40;;
50821;SDS011;36794;51.212;6.980;2023-07-29T08:15:41;2.90;;;1.58;;
50821;SDS011;36794;51.212;6.980;2023-07-29T08:18:07;5.10;;;1.20;;
50821;SDS011;36794;51.212;6.980;2023-07-29T08:20:33;4.43;;;1.10;;
50821;SDS011;36794;51.212;6.980;2023-07-29T08:22:59;3.95;;;1.05;;
50821;SDS011;36794;51.212;6.980;2023-07-29T08:25:25;2.97;;;1.00;;
50821;SDS011;36794;51.212;6.980;2023-07-29T08:27:51;2.22;;;1.10;;
50821;SDS011;36794;51.212;6.980;2023-07-29T08:30:17;4.45;;;1.10;;
50821;SDS011;36794;51.212;6.980;2023-07-29T08:32:43;2.22;;;0.90;;
50821;SDS011;36794;51.212;6.980;2023-07-29T08:35:09;1.55;;;0.93;;
50821;SDS011;36794;51.212;6.980;2023-07-29T08:37:36;5.28;;;1.00;;
50821;SDS011;36794;51.212;6.980;2023-07-29T08:40:02;2.42;;;0.95;;
50821;SDS011;36794;51.212;6.980;2023-07-29T08:42:28;3.72;;;0.90;;
50821;SDS011;36794;51.212;6.980;2023-07-29T08:44:55;1.90;;;0.80;;
50821;SDS011;36794;51.212;6.980;2023-07-29T08:47:21;3.15;;;0.70;;
50821;SDS011;36794;51.212;6.980;2023-07-29T08:49:47;2.25;;;0.75;;
50821;SDS011;36794;51.212;6.980;2023-07-29T08:52:13;3.10;;;0.77;;
50821;SDS011;36794;51.212;6.980;2023-07-29T08:54:40;1.25;;;0.60;;
50821;SDS011;36794;51.212;6.980;2023-07-29T08:57:06;2.95;;;0.90;;
50821;SDS011;36794;51.212;6.980;2023-07-29T08:59:32;2.10;;;0.57;;
50821;SDS011;36794;51.212;6.980;2023-07-29T09:01:58;1.13;;;0.57;;
50821;SDS011;36794;51.212;6.980;2023-07-29T09:04:24;2.88;;;0.70;;
50821;SDS011;36794;51.212;6.980;2023-07-29T09:06:51;2.47;;;0.73;;
50821;SDS011;36794;51.212;6.980;2023-07-29T09:09:17;0.70;;;0.60;;
50821;SDS011;36794;51.212;6.980;2023-07-29T09:11:43;5.55;;;0.70;;
50821;SDS011;36794;51.212;6.980;2023-07-29T09:14:09;3.33;;;1.15;;
50821;SDS011;36794;51.212;6.980;2023-07-29T09:16:35;1.95;;;0.70;;
50821;SDS011;36794;51.212;6.980;2023-07-29T09:19:02;5.15;;;0.93;;
50821;SDS011;36794;51.212;6.980;2023-07-29T09:21:28;1.38;;;0.60;;
50821;SDS011;36794;51.212;6.980;2023-07-29T09:23:55;0.70;;;0.60;;
50821;SDS011;36794;51.212;6.980;2023-07-29T09:26:27;1.52;;;0.80;;
50821;SDS011;36794;51.212;6.980;2023-07-29T09:28:57;1.92;;;0.80;;
50821;SDS011;36794;51.212;6.980;2023-07-29T09:31:24;1.58;;;0.80;;
50821;SDS011;36794;51.212;6.980;2023-07-29T09:33:58;1.77;;;1.23;;
50821;SDS011;36794;51.212;6.980;2023-07-29T09:36:24;3.27;;;0.70;;
50821;SDS011;36794;51.212;6.980;2023-07-29T09:38:52;1.02;;;0.70;;
50821;SDS011;36794;51.212;6.980;2023-07-29T09:41:18;4.53;;;0.80;;
50821;SDS011;36794;51.212;6.980;2023-07-29T09:43:44;1.20;;;0.80;;
50821;SDS011;36794;51.212;6.980;2023-07-29T09:46:10;5.45;;;0.77;;
50821;SDS011;36794;51.212;6.980;2023-07-29T09:48:36;2.28;;;0.70;;
50821;SDS011;36794;51.212;6.980;2023-07-29T09:51:15;2.60;;;0.75;;
50821;SDS011;36794;51.212;6.980;2023-07-29T09:53:45;1.63;;;0.85;;
50821;SDS011;36794;51.212;6.980;2023-07-29T09:56:12;2.95;;;0.90;;
50821;SDS011;36794;51.212;6.980;2023-07-29T09:58:38;0.80;;;0.50;;
50821;SDS011;36794;51.212;6.980;2023-07-29T10:01:05;2.45;;;0.57;;
50821;SDS011;36794;51.212;6.980;2023-07-29T10:03:32;1.02;;;0.47;;
50821;SDS011;36794;51.212;6.980;2023-07-29T10:06:02;1.30;;;0.60;;
50821;SDS011;36794;51.212;6.980;2023-07-29T10:08:31;3.05;;;0.80;;
50821;SDS011;36794;51.212;6.980;2023-07-29T10:11:00;1.73;;;0.70;;
50821;SDS011;36794;51.212;6.980;2023-07-29T10:13:26;3.17;;;0.68;;
50821;SDS011;36794;51.212;6.980;2023-07-29T10:15:56;2.35;;;0.68;;
50821;SDS011;36794;51.212;6.980;2023-07-29T10:18:22;2.58;;;0.80;;
50821;SDS011;36794;51.212;6.980;2023-07-29T10:20:52;1.25;;;0.60;;
50821;SDS011;36794;51.212;6.980;2023-07-29T10:23:18;1.10;;;0.60;;
50821;SDS011;36794;51.212;6.980;2023-07-29T10:25:49;1.20;;;0.68;;
50821;SDS011;36794;51.212;6.980;2023-07-29T10:28:16;2.65;;;0.90;;
50821;SDS011;36794;51.212;6.980;2023-07-29T10:30:44;3.60;;;0.63;;
50821;SDS011;36794;51.212;6.980;2023-07-29T10:33:10;1.83;;;0.60;;
50821;SDS011;36794;51.212;6.980;2023-07-29T10:35:36;3.17;;;0.60;;
50821;SDS011;36794;51.212;6.980;2023-07-29T10:38:03;0.93;;;0.52;;
50821;SDS011;36794;51.212;6.980;2023-07-29T10:40:50;2.25;;;0.77;;
50821;SDS011;36794;51.212;6.980;2023-07-29T10:43:24;1.17;;;0.60;;
50821;SDS011;36794;51.212;6.980;2023-07-29T10:45:50;2.88;;;0.60;;
50821;SDS011;36794;51.212;6.980;2023-07-29T10:49:16;2.85;;;1.30;;
50821;SDS011;36794;51.212;6.980;2023-07-29T10:53:47;1.98;;;1.00;;
50821;SDS011;36794;51.212;6.980;2023-07-29T10:56:12;2.83;;;1.00;;
50821;SDS011;36794;51.212;6.980;2023-07-29T10:58:38;2.78;;;0.77;;
50821;SDS011;36794;51.212;6.980;2023-07-29T11:01:26;1.40;;;0.80;;
50821;SDS011;36794;51.212;6.980;2023-07-29T11:07:01;2.33;;;0.98;;
50821;SDS011;36794;51.212;6.980;2023-07-29T11:15:24;5.70;;;1.02;;
50821;SDS011;36794;51.212;6.980;2023-07-29T11:20:23;3.05;;;0.90;;
50821;SDS011;36794;51.212;6.980;2023-07-29T11:22:49;2.45;;;0.77;;
50821;SDS011;36794;51.212;6.980;2023-07-29T11:25:16;3.42;;;0.70;;
50821;SDS011;36794;51.212;6.980;2023-07-29T11:27:42;1.23;;;0.80;;
50821;SDS011;36794;51.212;6.980;2023-07-29T11:30:09;1.60;;;0.63;;
50821;SDS011;36794;51.212;6.980;2023-07-29T11:32:36;4.25;;;0.75;;
50821;SDS011;36794;51.212;6.980;2023-07-29T11:35:06;3.08;;;0.80;;
50821;SDS011;36794;51.212;6.980;2023-07-29T11:37:33;3.50;;;0.90;;
50821;SDS011;36794;51.212;6.980;2023-07-29T11:39:59;5.20;;;0.90;;
50821;SDS011;36794;51.212;6.980;2023-07-29T11:42:26;2.25;;;0.85;;
50821;SDS011;36794;51.212;6.980;2023-07-29T11:44:52;2.92;;;1.15;;
50821;SDS011;36794;51.212;6.980;2023-07-29T11:47:18;3.10;;;0.80;;
50821;SDS011;36794;51.212;6.980;2023-07-29T11:49:44;5.80;;;1.00;;
50821;SDS011;36794;51.212;6.980;2023-07-29T11:52:10;2.28;;;0.88;;
50821;SDS011;36794;51.212;6.980;2023-07-29T11:54:37;3.08;;;1.00;;
50821;SDS011;36794;51.212;6.980;2023-07-29T11:57:07;2.03;;;1.00;;
50821;SDS011;36794;51.212;6.980;2023-07-29T11:59:34;3.97;;;1.02;;
50821;SDS011;36794;51.212;6.980;2023-07-29T12:02:01;4.82;;;1.38;;
50821;SDS011;36794;51.212;6.980;2023-07-29T12:04:28;2.25;;;1.00;;
50821;SDS011;36794;51.212;6.980;2023-07-29T12:06:54;2.95;;;0.95;;
50821;SDS011;36794;51.212;6.980;2023-07-29T12:09:21;2.28;;;1.10;;
50821;SDS011;36794;51.212;6.980;2023-07-29T12:11:47;2.53;;;1.05;;
50821;SDS011;36794;51.212;6.980;2023-07-29T12:14:13;3.63;;;1.05;;
50821;SDS011;36794;51.212;6.980;2023-07-29T12:16:42;5.38;;;1.20;;
50821;SDS011;36794;51.212;6.980;2023-07-29T12:19:08;2.80;;;1.00;;
50821;SDS011;36794;51.212;6.980;2023-07-29T12:21:37;4.10;;;1.15;;
50821;SDS011;36794;51.212;6.980;2023-07-29T12:24:03;3.30;;;1.20;;
50821;SDS011;36794;51.212;6.980;2023-07-29T12:26:30;4.80;;;1.30;;
50821;SDS011;36794;51.212;6.980;2023-07-29T12:28:56;1.85;;;1.17;;
50821;SDS011;36794;51.212;6.980;2023-07-29T12:31:28;2.53;;;1.20;;
50821;SDS011;36794;51.212;6.980;2023-07-29T12:33:57;2.17;;;1.15;;
50821;SDS011;36794;51.212;6.980;2023-07-29T12:36:26;7.13;;;1.38;;
50821;SDS011;36794;51.212;6.980;2023-07-29T12:38:53;5.72;;;1.08;;
50821;SDS011;36794;51.212;6.980;2023-07-29T12:41:19;3.90;;;1.17;;
50821;SDS011;36794;51.212;6.980;2023-07-29T12:43:45;4.78;;;1.20;;
50821;SDS011;36794;51.212;6.980;2023-07-29T12:46:11;3.17;;;1.20;;
50821;SDS011;36794;51.212;6.980;2023-07-29T12:48:37;2.05;;;1.08;;
50821;SDS011;36794;51.212;6.980;2023-07-29T12:51:03;4.07;;;1.00;;
50821;SDS011;36794;51.212;6.980;2023-07-29T12:53:29;1.75;;;1.13;;
50821;SDS011;36794;51.212;6.980;2023-07-29T12:55:55;2.60;;;1.00;;
50821;SDS011;36794;51.212;6.980;2023-07-29T12:58:20;2.97;;;1.00;;
50821;SDS011;36794;51.212;6.980;2023-07-29T13:00:46;3.50;;;0.90;;
50821;SDS011;36794;51.212;6.980;2023-07-29T13:03:13;2.88;;;1.02;;
50821;SDS011;36794;51.212;6.980;2023-07-29T13:05:38;2.53;;;1.15;;
50821;SDS011;36794;51.212;6.980;2023-07-29T13:08:04;2.38;;;0.90;;
50821;SDS011;36794;51.212;6.980;2023-07-29T13:10:30;6.53;;;1.20;;
50821;SDS011;36794;51.212;6.980;2023-07-29T13:12:56;3.42;;;1.27;;
50821;SDS011;36794;51.212;6.980;2023-07-29T13:15:23;2.22;;;0.95;;
50821;SDS011;36794;51.212;6.980;2023-07-29T13:17:49;1.98;;;0.80;;
50821;SDS011;36794;51.212;6.980;2023-07-29T13:20:15;2.88;;;0.88;;
50821;SDS011;36794;51.212;6.980;2023-07-29T13:22:41;8.63;;;1.80;;
50821;SDS011;36794;51.212;6.980;2023-07-29T13:25:07;2.58;;;0.98;;
50821;SDS011;36794;51.212;6.980;2023-07-29T13:27:33;6.22;;;1.30;;
50821;SDS011;36794;51.212;6.980;2023-07-29T13:29:59;19.85;;;2.60;;
50821;SDS011;36794;51.212;6.980;2023-07-29T13:32:25;16.85;;;2.53;;
50821;SDS011;36794;51.212;6.980;2023-07-29T13:34:51;4.53;;;1.17;;
50821;SDS011;36794;51.212;6.980;2023-07-29T13:37:17;4.00;;;1.08;;
50821;SDS011;36794;51.212;6.980;2023-07-29T13:39:43;3.38;;;0.90;;
50821;SDS011;36794;51.212;6.980;2023-07-29T13:42:09;2.00;;;1.10;;
50821;SDS011;36794;51.212;6.980;2023-07-29T13:44:35;1.98;;;1.25;;
50821;SDS011;36794;51.212;6.980;2023-07-29T13:47:01;3.15;;;1.25;;
50821;SDS011;36794;51.212;6.980;2023-07-29T13:49:27;4.75;;;1.92;;
50821;SDS011;36794;51.212;6.980;2023-07-29T13:51:52;9.48;;;1.45;;
50821;SDS011;36794;51.212;6.980;2023-07-29T13:54:18;2.20;;;1.25;;
50821;SDS011;36794;51.212;6.980;2023-07-29T13:56:44;4.10;;;1.30;;
50821;SDS011;36794;51.212;6.980;2023-07-29T13:59:10;2.70;;;0.98;;
50821;SDS011;36794;51.212;6.980;2023-07-29T14:01:36;3.85;;;0.90;;
50821;SDS011;36794;51.212;6.980;2023-07-29T14:04:02;1.92;;;1.13;;
50821;SDS011;36794;51.212;6.980;2023-07-29T14:06:29;2.38;;;0.90;;
50821;SDS011;36794;51.212;6.980;2023-07-29T14:08:55;2.50;;;1.02;;
50821;SDS011;36794;51.212;6.980;2023-07-29T14:11:21;1.50;;;0.93;;
50821;SDS011;36794;51.212;6.980;2023-07-29T14:13:47;3.10;;;1.10;;
50821;SDS011;36794;51.212;6.980;2023-07-29T14:16:13;2.13;;;1.38;;
50821;SDS011;36794;51.212;6.980;2023-07-29T14:18:39;5.22;;;1.33;;
50821;SDS011;36794;51.212;6.980;2023-07-29T14:21:05;3.40;;;1.30;;
50821;SDS011;36794;51.212;6.980;2023-07-29T14:23:31;2.55;;;1.25;;
50821;SDS011;36794;51.212;6.980;2023-07-29T14:25:57;2.90;;;1.30;;
50821;SDS011;36794;51.212;6.980;2023-07-29T14:28:23;2.78;;;1.27;;
50821;SDS011;36794;51.212;6.980;2023-07-29T14:30:49;3.63;;;1.52;;
50821;SDS011;36794;51.212;6.980;2023-07-29T14:33:15;3.83;;;1.58;;
50821;SDS011;36794;51.212;6.980;2023-07-29T14:35:41;2.90;;;1.23;;
50821;SDS011;36794;51.212;6.980;2023-07-29T14:38:07;4.68;;;2.13;;
50821;SDS011;36794;51.212;6.980;2023-07-29T14:40:33;2.42;;;1.30;;
50821;SDS011;36794;51.212;6.980;2023-07-29T14:42:59;2.35;;;1.48;;
50821;SDS011;36794;51.212;6.980;2023-07-29T14:45:25;4.40;;;1.50;;
50821;SDS011;36794;51.212;6.980;2023-07-29T14:47:51;4.13;;;1.60;;
50821;SDS011;36794;51.212;6.980;2023-07-29T14:50:17;2.75;;;1.50;;
50821;SDS011;36794;51.212;6.980;2023-07-29T14:52:43;2.25;;;1.42;;
50821;SDS011;36794;51.212;6.980;2023-07-29T14:55:09;2.33;;;1.48;;
50821;SDS011;36794;51.212;6.980;2023-07-29T14:57:35;4.47;;;1.50;;
50821;SDS011;36794;51.212;6.980;2023-07-29T15:00:01;2.95;;;1.42;;
50821;SDS011;36794;51.212;6.980;2023-07-29T15:02:28;3.42;;;1.50;;
50821;SDS011;36794;51.212;6.980;2023-07-29T15:04:54;3.78;;;1.45;;
50821;SDS011;36794;51.212;6.980;2023-07-29T15:07:20;2.63;;;1.67;;
50821;SDS011;36794;51.212;6.980;2023-07-29T15:09:46;1.95;;;1.42;;
50821;SDS011;36794;51.212;6.980;2023-07-29T15:12:12;4.20;;;1.25;;
50821;SDS011;36794;51.212;6.980;2023-07-29T15:14:38;3.53;;;1.50;;
50821;SDS011;36794;51.212;6.980;2023-07-29T15:17:04;4.72;;;1.45;;
50821;SDS011;36794;51.212;6.980;2023-07-29T15:19:31;2.78;;;1.67;;